FACL weather

Carolina Airport
Carolina, Mpumalanga, South Africa

Public forecast

Using degrees Celsius for public forecast. Weather courtesy of forecast.io.

Closest aviation weather report (METAR) to Carolina Airport

Closest report is Ermelo Airport, 25.8 nm (47.8 km) SSW. Retrieved 2020/01/19 05:40 UTC (1 hour ago):

FAEO 190540Z 10012KT 9999 BKN010 16/15 Q1017

Closest aviation forecast (TAF) to Carolina Airport

Forecast is more than 12 hours old.

Closest forecast is Ermelo Airport, 25.8 nm (47.8 km) SSW. Retrieved 2017/06/05 04:55 UTC (3 years ago):

TAF FAEO 050300Z 0504/0515 09006KT CAVOK TX18/0513ZTN05/0504Z